Time;durP1;ratioP1;P1;durP2;ratioP2;P2;SDS_P1;SDS_P2;PMS_P1;PMS_P2;Temp;Humidity;BMP_temperature;BMP_pressure;BME280_temperature;BME280_humidity;BME280_pressure;Samples;Min_cycle;Max_cycle;Signal;HPM_P1;HPM_P2
2023/05/02 00:01:51;;;;;;;7.65;3.35;;;15.60;99.90;;;;;;4915828;29;20076;-75
2023/05/02 00:04:17;;;;;;;4.95;3.25;;;15.60;99.90;;;;;;4915653;29;20032;-75
2023/05/02 00:06:45;;;;;;;5.72;3.15;;;15.60;99.90;;;;;;4916020;29;20119;-74
2023/05/02 00:09:11;;;;;;;6.40;3.22;;;15.50;99.90;;;;;;4915653;29;20021;-74
2023/05/02 00:11:37;;;;;;;6.85;3.28;;;15.50;99.90;;;;;;4916023;29;20411;-78
2023/05/02 00:14:03;;;;;;;7.70;3.40;;;15.50;99.90;;;;;;4915696;29;20087;-74
2023/05/02 00:16:29;;;;;;;4.72;3.00;;;15.50;99.90;;;;;;4914050;29;20463;-75
2023/05/02 00:18:55;;;;;;;5.18;2.95;;;15.40;99.90;;;;;;4903148;29;20107;-75
2023/05/02 00:21:21;;;;;;;6.65;3.05;;;15.40;99.90;;;;;;4915818;29;20100;-77
2023/05/02 00:23:47;;;;;;;4.07;2.92;;;15.40;99.90;;;;;;4915311;29;20028;-75
2023/05/02 00:26:13;;;;;;;7.50;3.30;;;15.40;99.90;;;;;;4915362;29;20114;-75
2023/05/02 00:28:41;;;;;;;7.55;3.58;;;15.40;99.90;;;;;;4915658;29;20028;-75
2023/05/02 00:31:08;;;;;;;5.60;3.17;;;15.40;99.90;;;;;;4915516;29;20063;-75
2023/05/02 00:33:33;;;;;;;6.95;3.22;;;15.40;99.90;;;;;;4898359;29;20043;-75
2023/05/02 00:35:59;;;;;;;5.57;2.70;;;15.30;99.90;;;;;;4898511;29;20503;-75
2023/05/02 00:38:25;;;;;;;4.70;2.92;;;15.30;99.90;;;;;;4898823;29;20043;-75
2023/05/02 00:40:52;;;;;;;4.50;3.22;;;15.30;99.90;;;;;;4915514;29;20040;-76
2023/05/02 00:43:19;;;;;;;7.60;3.45;;;15.30;99.90;;;;;;4898433;29;20028;-75
2023/05/02 00:45:45;;;;;;;3.53;2.80;;;15.30;99.90;;;;;;4915355;29;20047;-75
2023/05/02 00:48:12;;;;;;;5.32;2.97;;;15.30;99.90;;;;;;4914931;29;20031;-75
2023/05/02 00:50:40;;;;;;;4.47;3.00;;;15.30;99.90;;;;;;4917470;29;20032;-75
2023/05/02 00:53:07;;;;;;;5.18;2.97;;;15.20;99.90;;;;;;4918793;29;20027;-76
2023/05/02 00:55:34;;;;;;;5.18;3.10;;;15.20;99.90;;;;;;4918891;29;20035;-75
2023/05/02 00:58:03;;;;;;;4.63;2.83;;;15.20;99.90;;;;;;4901907;29;20119;-75
2023/05/02 01:01:09;;;;;;;6.47;3.00;;;15.20;99.90;;;;;;4909501;29;20037;-74
2023/05/02 01:03:55;;;;;;;5.57;3.42;;;15.20;99.90;;;;;;4868043;29;20029;-75
2023/05/02 01:06:42;;;;;;;5.70;2.95;;;15.20;99.90;;;;;;4863300;29;20139;-77
2023/05/02 01:09:36;;;;;;;7.70;3.50;;;15.10;99.90;;;;;;4862879;29;20048;-75
2023/05/02 01:12:03;;;;;;;4.72;2.80;;;15.10;99.90;;;;;;4879076;29;20045;-76
2023/05/02 01:14:33;;;;;;;6.97;3.30;;;15.10;99.90;;;;;;4878842;29;20032;-75
2023/05/02 01:17:04;;;;;;;3.83;2.78;;;15.00;99.90;;;;;;4860174;29;20061;-74
2023/05/02 01:19:42;;;;;;;5.25;2.80;;;14.90;99.90;;;;;;4877386;29;20040;-74
2023/05/02 01:22:10;;;;;;;5.28;3.08;;;15.00;99.90;;;;;;4863309;29;20041;-74
2023/05/02 01:25:17;;;;;;;4.30;2.78;;;14.90;99.90;;;;;;4878495;29;20572;-75
2023/05/02 01:28:00;;;;;;;4.97;2.97;;;14.90;99.90;;;;;;4862886;29;20067;-74
2023/05/02 01:30:29;;;;;;;5.30;3.28;;;14.90;99.90;;;;;;4878628;29;20581;-74
2023/05/02 01:32:57;;;;;;;6.88;2.85;;;14.80;99.90;;;;;;4878339;29;20142;-75
2023/05/02 01:35:26;;;;;;;6.88;2.97;;;14.80;99.90;;;;;;4878268;29;20081;-77
2023/05/02 01:37:54;;;;;;;5.78;3.47;;;14.80;99.90;;;;;;4900348;29;20479;-74
2023/05/02 01:40:21;;;;;;;5.75;3.20;;;14.80;99.90;;;;;;4899985;29;20032;-74
2023/05/02 01:42:58;;;;;;;5.07;3.63;;;14.80;99.90;;;;;;4918226;29;20036;-74
2023/05/02 01:45:25;;;;;;;5.80;3.22;;;14.80;99.90;;;;;;4917699;29;20151;-74
2023/05/02 01:47:52;;;;;;;4.22;2.70;;;14.80;99.90;;;;;;4917836;29;20040;-74
2023/05/02 01:50:23;;;;;;;4.65;2.70;;;14.80;99.90;;;;;;4917678;29;20030;-74
2023/05/02 01:52:52;;;;;;;8.63;3.10;;;14.70;99.90;;;;;;4900745;29;20038;-74
2023/05/02 01:55:19;;;;;;;5.40;3.28;;;14.70;99.90;;;;;;4917793;29;20020;-75
2023/05/02 01:57:47;;;;;;;4.38;2.92;;;14.70;99.90;;;;;;4917719;29;20044;-74
2023/05/02 02:00:16;;;;;;;3.95;2.78;;;14.70;99.90;;;;;;4900816;29;20388;-75
2023/05/02 02:02:45;;;;;;;7.53;3.70;;;14.70;99.90;;;;;;4899674;29;20484;-73
2023/05/02 02:05:15;;;;;;;5.95;3.20;;;14.60;99.90;;;;;;4917376;29;20075;-73
2023/05/02 02:07:42;;;;;;;4.45;2.95;;;14.60;99.90;;;;;;4916998;29;20040;-74
2023/05/02 02:10:08;;;;;;;5.63;3.47;;;14.60;99.90;;;;;;4900625;29;20024;-74
2023/05/02 02:12:59;;;;;;;5.80;3.22;;;14.50;99.90;;;;;;4900533;29;20035;-74
2023/05/02 02:15:28;;;;;;;9.27;3.55;;;14.50;99.90;;;;;;4900452;29;20399;-73
2023/05/02 02:18:06;;;;;;;4.97;3.15;;;14.50;99.90;;;;;;4917199;29;20107;-73
2023/05/02 02:20:33;;;;;;;4.95;2.90;;;14.50;99.90;;;;;;4900672;29;20036;-74
2023/05/02 02:23:02;;;;;;;4.57;3.00;;;14.50;99.90;;;;;;4917326;29;20619;-75
2023/05/02 02:25:28;;;;;;;4.07;2.90;;;14.50;99.90;;;;;;4917197;29;20119;-73
2023/05/02 02:27:55;;;;;;;5.55;2.97;;;14.60;99.90;;;;;;4917205;29;20039;-73
2023/05/02 02:30:22;;;;;;;7.75;3.47;;;14.60;99.90;;;;;;4917285;29;20048;-77
2023/05/02 02:32:48;;;;;;;4.72;2.75;;;14.50;99.90;;;;;;4916959;29;20028;-75
2023/05/02 02:35:15;;;;;;;4.95;3.38;;;14.50;99.90;;;;;;4899671;29;20087;-74
2023/05/02 02:37:50;;;;;;;4.88;3.00;;;14.50;99.90;;;;;;4899531;29;20052;-75
2023/05/02 02:40:36;;;;;;;5.05;2.58;;;14.50;99.90;;;;;;4916831;29;20137;-74
2023/05/02 02:43:07;;;;;;;5.38;3.15;;;14.50;99.90;;;;;;4916573;29;20110;-76
2023/05/02 02:45:44;;;;;;;5.78;3.05;;;14.60;99.90;;;;;;4899927;29;20055;-75
2023/05/02 02:48:32;;;;;;;5.05;3.00;;;14.60;99.90;;;;;;4899653;29;20032;-75
2023/05/02 02:51:01;;;;;;;6.03;2.83;;;14.60;99.90;;;;;;4899985;29;20039;-75
2023/05/02 02:53:43;;;;;;;5.40;3.20;;;14.60;99.90;;;;;;4916613;29;20480;-74
2023/05/02 02:56:35;;;;;;;2.50;2.20;;;14.60;99.90;;;;;;4899451;29;20044;-73
2023/05/02 02:59:09;;;;;;;3.97;2.85;;;14.60;99.90;;;;;;4916568;29;20032;-74
2023/05/02 03:01:38;;;;;;;5.47;2.85;;;14.60;99.90;;;;;;4916676;29;20042;-75
2023/05/02 03:04:07;;;;;;;4.78;3.40;;;14.70;99.90;;;;;;4916407;29;20031;-75
2023/05/02 03:06:36;;;;;;;4.65;2.70;;;14.70;99.90;;;;;;4906279;29;20036;-74
2023/05/02 03:09:03;;;;;;;5.47;3.20;;;14.70;99.90;;;;;;4899509;29;20476;-78
2023/05/02 03:11:29;;;;;;;4.28;2.97;;;14.70;99.90;;;;;;4897000;29;20064;-74
2023/05/02 03:13:56;;;;;;;5.68;3.00;;;14.70;99.90;;;;;;4899462;29;20384;-74
2023/05/02 03:16:35;;;;;;;4.57;2.70;;;14.70;99.90;;;;;;4899410;29;20476;-76
2023/05/02 03:19:04;;;;;;;4.90;2.83;;;14.70;99.90;;;;;;4899302;29;20036;-75
2023/05/02 03:21:31;;;;;;;4.35;2.92;;;14.70;99.90;;;;;;4899305;29;20384;-74
2023/05/02 03:24:04;;;;;;;;;;;14.70;99.90;;;;;;4899732;29;20536;-74
2023/05/02 03:26:30;;;;;;;14.80;4.13;;;14.70;99.90;;;;;;4899018;29;19923;-75
2023/05/02 03:28:56;;;;;;;5.13;2.88;;;14.70;99.90;;;;;;4899127;29;20080;-74
2023/05/02 03:31:28;;;;;;;10.05;3.05;;;14.80;99.90;;;;;;4899172;29;20036;-74
2023/05/02 03:33:54;;;;;;;3.92;2.88;;;14.80;99.90;;;;;;4915388;29;20024;-75
2023/05/02 03:36:20;;;;;;;5.25;3.13;;;14.80;99.90;;;;;;4889062;29;20060;-74
2023/05/02 03:38:46;;;;;;;6.03;3.15;;;14.80;99.90;;;;;;4911436;29;20047;-74
2023/05/02 03:41:13;;;;;;;6.95;3.47;;;14.90;99.90;;;;;;4898276;29;20083;-77
2023/05/02 03:43:40;;;;;;;3.72;2.80;;;15.00;99.90;;;;;;4894034;29;20044;-74
2023/05/02 03:46:08;;;;;;;6.95;3.30;;;15.10;99.90;;;;;;4910878;29;20400;-75
2023/05/02 03:48:37;;;;;;;6.13;3.40;;;15.10;99.90;;;;;;4892016;29;20095;-74
2023/05/02 03:51:04;;;;;;;5.43;3.10;;;15.10;99.90;;;;;;4909256;29;20044;-74
2023/05/02 03:53:37;;;;;;;4.07;2.72;;;15.10;99.90;;;;;;4893334;29;20032;-77
2023/05/02 03:56:03;;;;;;;10.50;3.08;;;15.30;99.90;;;;;;4907878;29;20038;-73
2023/05/02 03:58:40;;;;;;;3.92;3.15;;;15.60;99.90;;;;;;4892125;29;20187;-74
2023/05/02 04:01:14;;;;;;;4.00;2.60;;;15.70;99.90;;;;;;4892765;29;20043;-74
2023/05/02 04:03:40;;;;;;;4.68;2.80;;;15.80;99.90;;;;;;4891324;29;20036;-73
2023/05/02 04:06:08;;;;;;;2.92;2.47;;;15.80;99.90;;;;;;4893624;29;20048;-74
2023/05/02 04:08:35;;;;;;;4.15;2.90;;;15.90;99.90;;;;;;4909035;29;20087;-73
2023/05/02 04:11:01;;;;;;;6.65;2.95;;;15.80;99.90;;;;;;4892292;29;20060;-73
2023/05/02 04:13:28;;;;;;;7.25;3.13;;;15.70;99.90;;;;;;4893192;29;20534;-75
2023/05/02 04:15:55;;;;;;;4.47;2.97;;;15.60;99.90;;;;;;4891335;29;20040;-75
2023/05/02 04:18:23;;;;;;;4.00;2.80;;;15.60;99.90;;;;;;4892693;29;20032;-73
2023/05/02 04:20:50;;;;;;;6.38;3.03;;;15.70;99.90;;;;;;4891061;29;20036;-72
2023/05/02 04:23:18;;;;;;;5.60;2.65;;;15.90;99.90;;;;;;4891740;29;20504;-73
2023/05/02 04:25:52;;;;;;;4.00;2.55;;;15.90;99.90;;;;;;4895020;29;20047;-73
2023/05/02 04:28:20;;;;;;;6.40;3.20;;;16.00;99.90;;;;;;4909963;29;20036;-74
2023/05/02 04:30:48;;;;;;;14.98;3.30;;;16.10;99.90;;;;;;4892751;29;20192;-75
2023/05/02 04:33:16;;;;;;;4.10;2.58;;;16.30;99.90;;;;;;4896168;29;20369;-74
2023/05/02 04:35:41;;;;;;;3.50;2.33;;;16.50;99.90;;;;;;4868884;29;1213387;-74
2023/05/02 04:38:10;;;;;;;5.18;3.13;;;16.80;99.90;;;;;;4894018;29;20028;-74
2023/05/02 04:40:37;;;;;;;4.05;2.90;;;16.60;99.90;;;;;;4896194;29;20444;-75
2023/05/02 04:43:05;;;;;;;8.43;3.10;;;16.90;99.90;;;;;;4894106;29;20024;-79
2023/05/02 04:45:55;;;;;;;6.82;3.47;;;17.10;99.10;;;;;;4894125;29;20047;-74
2023/05/02 04:48:26;;;;;;;12.82;4.82;;;16.90;98.60;;;;;;4906069;29;20496;-74
2023/05/02 04:50:52;;;;;;;5.45;3.53;;;17.10;99.40;;;;;;4894062;29;20051;-75
2023/05/02 04:53:21;;;;;;;8.70;3.58;;;17.50;99.10;;;;;;4910587;29;20123;-75
2023/05/02 04:55:47;;;;;;;5.15;3.03;;;17.30;98.00;;;;;;4911482;29;20032;-74
2023/05/02 04:58:13;;;;;;;4.88;2.92;;;17.30;98.30;;;;;;4904119;29;20511;-78
2023/05/02 05:00:40;;;;;;;5.57;3.28;;;17.30;98.00;;;;;;4893325;29;20037;-74
2023/05/02 05:03:06;;;;;;;28.08;3.67;;;17.30;97.50;;;;;;4878231;29;20047;-75
2023/05/02 05:05:32;;;;;;;7.80;3.20;;;17.20;98.60;;;;;;4909856;29;20040;-73
2023/05/02 05:07:59;;;;;;;9.23;3.40;;;17.10;98.10;;;;;;4895538;29;20043;-74
2023/05/02 05:10:29;;;;;;;8.20;3.60;;;17.00;99.00;;;;;;4910750;29;20079;-75
2023/05/02 05:12:55;;;;;;;12.27;4.47;;;16.90;99.00;;;;;;4910164;29;20025;-77
2023/05/02 05:15:24;;;;;;;6.85;3.70;;;17.00;98.60;;;;;;4895835;29;20044;-73
2023/05/02 05:17:54;;;;;;;9.52;3.38;;;17.00;98.60;;;;;;4893068;29;20377;-74
2023/05/02 05:20:21;;;;;;;7.80;3.33;;;17.00;99.10;;;;;;4893588;29;20040;-73
2023/05/02 05:22:49;;;;;;;10.98;3.92;;;17.10;99.70;;;;;;4894538;29;20036;-75
2023/05/02 05:25:15;;;;;;;8.15;3.50;;;17.10;98.70;;;;;;4892890;29;20061;-74
2023/05/02 05:27:43;;;;;;;5.07;3.20;;;17.10;98.60;;;;;;4892656;29;20188;-77
2023/05/02 05:30:10;;;;;;;6.78;3.83;;;17.20;98.70;;;;;;4892606;29;20028;-75
2023/05/02 05:32:36;;;;;;;8.13;3.50;;;17.40;99.20;;;;;;4892334;29;20048;-73
2023/05/02 05:35:03;;;;;;;7.32;3.00;;;17.30;98.50;;;;;;4910193;29;20135;-74
2023/05/02 05:37:29;;;;;;;5.15;3.40;;;17.40;98.20;;;;;;4893153;29;20480;-76
2023/05/02 05:39:57;;;;;;;4.40;3.03;;;17.40;97.80;;;;;;4886635;29;20042;-74
2023/05/02 05:42:24;;;;;;;6.05;3.65;;;17.50;98.00;;;;;;4885487;29;20354;-73
2023/05/02 05:44:54;;;;;;;10.65;3.47;;;17.50;98.60;;;;;;4892791;29;20042;-74
2023/05/02 05:47:21;;;;;;;8.10;3.45;;;17.50;97.00;;;;;;4892671;29;20076;-74
2023/05/02 05:49:55;;;;;;;9.02;3.65;;;17.50;97.50;;;;;;4894829;29;20024;-74
2023/05/02 05:52:25;;;;;;;8.98;3.80;;;17.50;97.50;;;;;;4892226;29;20032;-74
2023/05/02 05:54:57;;;;;;;9.30;3.63;;;17.50;97.80;;;;;;4911207;29;20024;-74
2023/05/02 05:57:24;;;;;;;6.03;3.22;;;17.50;98.10;;;;;;4900752;29;20034;-74
2023/05/02 05:59:51;;;;;;;12.45;3.90;;;17.50;98.00;;;;;;4900628;29;20480;-74
2023/05/02 06:02:18;;;;;;;3.45;2.63;;;17.40;98.00;;;;;;4910372;29;20040;-74
2023/05/02 06:04:45;;;;;;;6.70;3.28;;;17.30;97.90;;;;;;4908760;29;20075;-73
2023/05/02 06:07:12;;;;;;;5.75;3.47;;;17.40;98.20;;;;;;4893927;29;20515;-73
2023/05/02 06:09:38;;;;;;;14.23;3.50;;;17.50;98.70;;;;;;4908677;29;20043;-74
2023/05/02 06:12:04;;;;;;;5.68;3.30;;;17.60;98.40;;;;;;4902077;29;20084;-74
2023/05/02 06:14:32;;;;;;;4.80;3.20;;;17.60;98.20;;;;;;4894522;29;20032;-74
2023/05/02 06:16:59;;;;;;;5.78;3.10;;;17.70;97.40;;;;;;4891747;29;20048;-75
2023/05/02 06:19:26;;;;;;;5.18;2.95;;;17.80;98.70;;;;;;4891426;29;20028;-74
2023/05/02 06:21:51;;;;;;;6.07;3.17;;;17.90;97.80;;;;;;4910698;29;20047;-73
2023/05/02 06:24:17;;;;;;;6.15;3.13;;;18.00;97.80;;;;;;4901054;29;20029;-77
2023/05/02 06:26:43;;;;;;;5.07;3.08;;;18.10;97.30;;;;;;4907381;29;20033;-76
2023/05/02 06:29:09;;;;;;;5.25;3.10;;;18.20;97.70;;;;;;4909235;29;20381;-76
2023/05/02 06:31:35;;;;;;;8.15;3.50;;;18.20;95.90;;;;;;4901982;29;20036;-73
2023/05/02 06:34:00;;;;;;;6.53;3.40;;;18.40;97.20;;;;;;4906537;29;20496;-76
2023/05/02 06:36:26;;;;;;;6.70;3.72;;;18.50;96.10;;;;;;4898405;29;20163;-76
2023/05/02 06:38:52;;;;;;;4.53;3.45;;;18.70;96.50;;;;;;4906559;29;20032;-77
2023/05/02 06:41:19;;;;;;;6.65;3.58;;;18.70;96.50;;;;;;4909187;29;20036;-78
2023/05/02 06:43:45;;;;;;;14.07;3.83;;;18.90;95.80;;;;;;4903194;29;20036;-76
2023/05/02 06:46:11;;;;;;;5.13;3.47;;;18.80;96.40;;;;;;4913621;29;20028;-76
2023/05/02 06:48:37;;;;;;;11.05;4.03;;;18.90;94.80;;;;;;4906624;29;20040;-81
2023/05/02 06:51:03;;;;;;;5.22;3.20;;;19.00;95.80;;;;;;4910140;29;20152;-78
2023/05/02 06:53:30;;;;;;;5.32;3.53;;;19.00;96.00;;;;;;4908322;29;20035;-77
2023/05/02 06:55:56;;;;;;;6.72;3.00;;;19.00;95.00;;;;;;4904445;29;20103;-76
2023/05/02 06:58:23;;;;;;;6.10;3.40;;;19.00;94.50;;;;;;4906016;29;20115;-78
2023/05/02 07:00:49;;;;;;;11.43;3.88;;;19.20;95.40;;;;;;4915640;29;20395;-78
2023/05/02 07:03:15;;;;;;;7.97;4.25;;;19.20;93.80;;;;;;4916406;29;20028;-78
2023/05/02 07:05:41;;;;;;;7.22;3.80;;;19.30;94.50;;;;;;4916163;29;20035;-75
2023/05/02 07:08:07;;;;;;;9.00;4.13;;;19.40;95.40;;;;;;4915800;29;20396;-75
2023/05/02 07:10:33;;;;;;;9.35;4.38;;;19.50;95.80;;;;;;4913519;29;20028;-76
2023/05/02 07:13:00;;;;;;;8.13;4.97;;;19.50;94.70;;;;;;4889579;29;20404;-76
2023/05/02 07:15:26;;;;;;;7.90;4.05;;;19.50;94.60;;;;;;4916345;29;20111;-75
2023/05/02 07:17:52;;;;;;;9.77;3.72;;;19.50;95.20;;;;;;4916197;29;20032;-74
2023/05/02 07:20:18;;;;;;;12.20;5.15;;;19.50;95.90;;;;;;4916103;29;20039;-75
2023/05/02 07:22:45;;;;;;;9.32;4.65;;;19.40;95.70;;;;;;4916083;29;20107;-78
2023/05/02 07:25:10;;;;;;;8.50;4.32;;;19.40;95.20;;;;;;4916229;29;20107;-76
2023/05/02 07:27:37;;;;;;;10.90;4.80;;;19.50;94.60;;;;;;4916104;29;20055;-74
2023/05/02 07:30:03;;;;;;;13.43;4.45;;;19.60;94.50;;;;;;4916198;29;20031;-74
2023/05/02 07:32:30;;;;;;;7.88;4.43;;;19.70;95.10;;;;;;4915641;29;20058;-77
2023/05/02 07:34:56;;;;;;;10.18;4.65;;;19.80;95.90;;;;;;4915718;29;20040;-78
2023/05/02 07:37:22;;;;;;;8.30;4.45;;;19.80;95.70;;;;;;4915974;29;20040;-76
2023/05/02 07:39:48;;;;;;;8.77;3.65;;;19.90;94.50;;;;;;4915874;29;20032;-77
2023/05/02 07:42:13;;;;;;;11.65;5.07;;;19.90;93.50;;;;;;4916058;29;20035;-75
2023/05/02 07:44:40;;;;;;;8.02;4.28;;;20.00;94.40;;;;;;4915785;29;20024;-76
2023/05/02 07:47:06;;;;;;;6.65;3.53;;;20.00;93.50;;;;;;4916189;29;20059;-74
2023/05/02 07:49:32;;;;;;;7.78;4.10;;;20.00;93.40;;;;;;4915845;29;20495;-77
2023/05/02 07:51:58;;;;;;;16.27;3.63;;;20.10;92.70;;;;;;4915964;29;20032;-77
2023/05/02 07:54:27;;;;;;;5.75;3.40;;;20.20;92.70;;;;;;4915780;29;20028;-75
2023/05/02 07:56:53;;;;;;;6.95;3.28;;;20.20;92.50;;;;;;4915682;29;20396;-74
2023/05/02 07:59:18;;;;;;;6.80;3.25;;;20.20;92.20;;;;;;4915918;29;20035;-76
2023/05/02 08:01:45;;;;;;;7.15;3.58;;;20.30;92.10;;;;;;4919040;29;20044;-75
2023/05/02 08:04:11;;;;;;;8.52;3.65;;;20.40;91.70;;;;;;4905658;29;20496;-76
2023/05/02 08:06:37;;;;;;;9.68;3.55;;;20.50;92.20;;;;;;4915150;29;20052;-75
2023/05/02 08:09:03;;;;;;;8.85;3.67;;;20.60;90.70;;;;;;4919498;29;20080;-75
2023/05/02 08:11:29;;;;;;;5.78;3.05;;;20.80;90.90;;;;;;4919439;29;20095;-74
2023/05/02 08:13:54;;;;;;;5.95;3.30;;;20.90;91.20;;;;;;4917516;29;20107;-77
2023/05/02 08:16:20;;;;;;;9.45;3.17;;;20.90;91.00;;;;;;4910100;29;20036;-74
2023/05/02 08:18:46;;;;;;;5.53;3.33;;;21.10;91.50;;;;;;4900425;29;20032;-74
2023/05/02 08:21:12;;;;;;;9.27;4.25;;;21.10;91.10;;;;;;4917973;29;20038;-77
2023/05/02 08:23:40;;;;;;;8.70;3.78;;;21.00;91.40;;;;;;4918961;29;20084;-77
2023/05/02 08:26:06;;;;;;;9.18;3.80;;;21.10;91.20;;;;;;4903832;29;20075;-73
2023/05/02 08:28:34;;;;;;;7.20;2.95;;;21.10;91.20;;;;;;4902906;29;20413;-75
2023/05/02 08:31:02;;;;;;;8.13;3.75;;;21.40;91.90;;;;;;4902635;29;20052;-76
2023/05/02 08:33:28;;;;;;;7.03;3.45;;;21.60;91.90;;;;;;4894844;29;20515;-74
2023/05/02 08:35:53;;;;;;;6.20;3.15;;;21.60;91.20;;;;;;4917779;29;20111;-75
2023/05/02 08:38:19;;;;;;;6.13;3.50;;;21.70;90.50;;;;;;4901069;29;20027;-75
2023/05/02 08:40:45;;;;;;;9.18;3.35;;;21.80;91.60;;;;;;4917542;29;20036;-76
2023/05/02 08:43:12;;;;;;;9.43;3.25;;;22.00;91.90;;;;;;4905720;29;20043;-77
2023/05/02 08:45:44;;;;;;;5.60;3.65;;;22.00;89.60;;;;;;4909532;29;20473;-76
2023/05/02 08:48:13;;;;;;;3.60;2.88;;;21.90;90.40;;;;;;4918098;29;20135;-74
2023/05/02 08:50:45;;;;;;;4.93;3.17;;;21.80;89.10;;;;;;4906736;29;20039;-77
2023/05/02 08:53:13;;;;;;;6.30;3.15;;;21.90;90.50;;;;;;4918922;29;20060;-78
2023/05/02 08:55:40;;;;;;;6.68;3.42;;;21.80;89.40;;;;;;4919717;29;20020;-75
2023/05/02 08:58:08;;;;;;;5.07;2.88;;;21.90;90.30;;;;;;4918365;29;20054;-77
2023/05/02 09:00:41;;;;;;;4.07;2.78;;;22.00;90.50;;;;;;4915631;29;20024;-74
2023/05/02 09:03:33;;;;;;;9.57;3.75;;;22.20;91.10;;;;;;4916182;29;20527;-76
2023/05/02 09:06:17;;;;;;;7.43;2.88;;;22.30;90.70;;;;;;4910522;29;20040;-74
2023/05/02 09:08:47;;;;;;;9.13;3.33;;;22.20;90.20;;;;;;4911236;29;20075;-77
2023/05/02 09:14:15;;;;;;;3.78;3.00;;;22.20;89.30;;;;;;5000116;23;20040;-75
2023/05/02 09:16:41;;;;;;;5.50;3.53;;;22.30;90.30;;;;;;4908044;29;20030;-74
2023/05/02 09:19:07;;;;;;;9.10;3.47;;;22.20;90.30;;;;;;4922334;29;20092;-75
2023/05/02 09:21:39;;;;;;;8.95;3.33;;;22.20;90.00;;;;;;4923275;29;20510;-76
2023/05/02 09:24:28;;;;;;;6.38;3.45;;;22.10;89.10;;;;;;4919786;29;20103;-74
2023/05/02 09:27:03;;;;;;;5.85;3.05;;;21.90;88.90;;;;;;4900468;29;20395;-75
2023/05/02 09:29:34;;;;;;;13.70;3.03;;;21.90;89.50;;;;;;4901116;29;20100;-76
2023/05/02 09:32:02;;;;;;;3.97;3.10;;;22.00;91.40;;;;;;4918232;29;20063;-76
2023/05/02 09:34:29;;;;;;;6.00;3.47;;;22.10;89.40;;;;;;4917885;29;20020;-78
2023/05/02 09:36:56;;;;;;;4.95;3.10;;;22.20;87.30;;;;;;4918225;29;20441;-77
2023/05/02 09:39:28;;;;;;;4.53;2.97;;;22.20;89.70;;;;;;4918533;29;20020;-75
2023/05/02 09:41:54;;;;;;;6.35;3.05;;;22.20;88.50;;;;;;4917860;29;20483;-77
2023/05/02 09:44:25;;;;;;;4.57;2.75;;;22.20;87.90;;;;;;4918019;29;20043;-77
2023/05/02 09:46:56;;;;;;;4.85;3.30;;;22.10;87.90;;;;;;4917259;29;20086;-76
2023/05/02 09:49:43;;;;;;;10.20;3.67;;;22.20;88.40;;;;;;4916999;29;20399;-78
2023/05/02 09:52:17;;;;;;;6.10;3.15;;;22.60;90.10;;;;;;4913273;29;20472;-78
2023/05/02 09:54:45;;;;;;;7.10;4.15;;;22.60;88.40;;;;;;4917389;29;20036;-79
2023/05/02 09:57:11;;;;;;;4.63;3.28;;;22.70;88.70;;;;;;4914019;29;20108;-76
2023/05/02 09:59:38;;;;;;;8.40;3.72;;;22.50;88.80;;;;;;4914784;29;20119;-77
2023/05/02 10:02:06;;;;;;;12.13;3.33;;;22.40;90.20;;;;;;4917704;29;20024;-77
2023/05/02 10:04:33;;;;;;;7.22;4.13;;;22.40;90.20;;;;;;4916754;29;20040;-76
2023/05/02 10:07:00;;;;;;;5.80;2.83;;;22.70;90.60;;;;;;4915229;29;20072;-77
2023/05/02 10:09:27;;;;;;;6.70;3.33;;;22.60;88.30;;;;;;4917415;29;20040;-76
2023/05/02 10:11:55;;;;;;;6.25;2.72;;;22.70;89.60;;;;;;4917168;29;20066;-75
2023/05/02 10:14:24;;;;;;;23.00;3.50;;;22.50;90.00;;;;;;4904461;29;20071;-76
2023/05/02 10:17:11;;;;;;;20.45;3.85;;;22.50;90.10;;;;;;4917328;29;20035;-75
2023/05/02 10:19:59;;;;;;;31.58;4.45;;;22.50;87.50;;;;;;4900373;29;20399;-75
2023/05/02 10:22:25;;;;;;;16.77;4.03;;;22.40;89.00;;;;;;4916112;29;20028;-77
2023/05/02 10:24:52;;;;;;;5.00;2.83;;;22.40;89.50;;;;;;4916744;29;20075;-75
2023/05/02 10:27:18;;;;;;;8.02;3.65;;;22.50;92.10;;;;;;4915630;29;20032;-76
2023/05/02 10:29:45;;;;;;;5.40;3.05;;;22.50;89.50;;;;;;4916851;29;20021;-78
2023/05/02 10:32:14;;;;;;;4.05;2.80;;;22.60;89.80;;;;;;4918543;29;20392;-78
2023/05/02 10:34:41;;;;;;;8.48;3.42;;;22.30;85.90;;;;;;4917088;29;20016;-77
2023/05/02 10:37:06;;;;;;;5.72;3.58;;;22.40;88.50;;;;;;4916513;29;20072;-75
2023/05/02 10:39:32;;;;;;;7.78;3.80;;;22.50;87.60;;;;;;4917025;29;20027;-77
2023/05/02 10:42:02;;;;;;;9.73;4.13;;;22.70;89.10;;;;;;4916529;29;20508;-76
2023/05/02 10:44:38;;;;;;;6.03;3.25;;;22.80;87.80;;;;;;4916542;29;20028;-77
2023/05/02 10:47:25;;;;;;;9.27;5.57;;;22.90;89.00;;;;;;4910877;29;20036;-77
2023/05/02 10:49:55;;;;;;;5.82;3.58;;;23.30;90.00;;;;;;4916181;29;20472;-77
2023/05/02 10:52:32;;;;;;;8.20;4.25;;;23.50;87.90;;;;;;4915832;29;20040;-77
2023/05/02 10:55:20;;;;;;;8.50;4.32;;;23.80;88.00;;;;;;4904956;29;20043;-78
2023/05/02 10:58:01;;;;;;;5.18;3.15;;;24.10;87.10;;;;;;4916260;29;20475;-77
2023/05/02 11:00:31;;;;;;;9.95;3.95;;;24.10;86.30;;;;;;4916559;29;20032;-75
2023/05/02 11:02:57;;;;;;;7.53;3.33;;;24.10;88.60;;;;;;4916539;29;20032;-76
2023/05/02 11:05:24;;;;;;;9.00;4.25;;;24.10;86.30;;;;;;4899739;29;20024;-78
2023/05/02 11:08:16;;;;;;;16.67;4.15;;;24.00;85.90;;;;;;4916196;29;20032;-78
2023/05/02 11:10:44;;;;;;;89.80;82.90;;;23.90;85.20;;;;;;4916550;29;20033;-78
2023/05/02 11:13:11;;;;;;;16.45;13.00;;;24.10;87.60;;;;;;4915407;29;20088;-76
2023/05/02 11:15:39;;;;;;;5.72;3.50;;;24.00;84.50;;;;;;4916278;29;20039;-75
2023/05/02 11:18:11;;;;;;;7.38;4.57;;;24.00;84.10;;;;;;4915844;29;20036;-78
2023/05/02 11:20:44;;;;;;;7.90;4.28;;;23.90;84.10;;;;;;4897766;29;20029;-76
2023/05/02 11:23:16;;;;;;;5.75;3.30;;;24.00;84.70;;;;;;4909453;29;20400;-76
2023/05/02 11:25:44;;;;;;;15.93;8.45;;;24.10;83.30;;;;;;4916198;29;20135;-76
2023/05/02 11:28:37;;;;;;;17.85;12.88;;;24.10;86.60;;;;;;4898427;29;20035;-77
2023/05/02 11:31:05;;;;;;;14.82;6.80;;;24.10;84.60;;;;;;4911359;29;20032;-76
2023/05/02 11:33:31;;;;;;;4.82;3.45;;;24.30;85.40;;;;;;4914291;29;20127;-78
2023/05/02 11:35:57;;;;;;;8.88;5.65;;;24.30;84.10;;;;;;4916281;29;20028;-76
2023/05/02 11:38:25;;;;;;;9.38;4.15;;;24.20;82.90;;;;;;4916030;29;20028;-77
2023/05/02 11:40:53;;;;;;;349.92;263.15;;;24.10;82.00;;;;;;4916102;29;20111;-78
2023/05/02 11:43:24;;;;;;;20.67;13.38;;;24.30;82.70;;;;;;4915214;29;20515;-79
2023/05/02 11:45:50;;;;;;;28.73;16.90;;;24.30;81.40;;;;;;4915624;29;20036;-77
2023/05/02 11:48:17;;;;;;;21.58;12.90;;;24.30;82.90;;;;;;4915719;29;20035;-75
2023/05/02 11:50:49;;;;;;;17.15;8.98;;;24.30;81.80;;;;;;4915167;29;20039;-77
2023/05/02 11:53:28;;;;;;;17.27;7.07;;;23.90;84.70;;;;;;4911080;29;20107;-77
2023/05/02 11:55:56;;;;;;;15.52;4.72;;;23.80;84.60;;;;;;4916666;29;20028;-79
2023/05/02 11:58:24;;;;;;;12.27;5.55;;;23.20;82.00;;;;;;4916180;29;20103;-79
2023/05/02 12:00:52;;;;;;;8.55;4.25;;;23.00;82.20;;;;;;4915443;29;20107;-76
2023/05/02 12:03:32;;;;;;;25.17;10.10;;;22.80;81.10;;;;;;4915828;29;20484;-76
2023/05/02 12:06:10;;;;;;;9.82;5.30;;;22.80;84.00;;;;;;4915931;29;20432;-75
2023/05/02 12:08:36;;;;;;;12.52;5.28;;;22.70;84.80;;;;;;4914913;29;20236;-76
2023/05/02 12:11:02;;;;;;;10.40;5.47;;;22.80;86.60;;;;;;4915535;29;20051;-80
2023/05/02 12:13:28;;;;;;;8.00;5.10;;;22.70;84.50;;;;;;4915002;29;20087;-78
2023/05/02 12:15:55;;;;;;;8.50;5.57;;;22.70;85.60;;;;;;4915101;29;20036;-75
2023/05/02 12:18:23;;;;;;;4.10;3.25;;;22.80;85.00;;;;;;4915626;29;20479;-79
2023/05/02 12:20:51;;;;;;;5.07;3.05;;;23.00;83.70;;;;;;4915100;29;20107;-79
2023/05/02 12:23:22;;;;;;;6.35;3.40;;;22.90;84.00;;;;;;4915815;29;20107;-76
2023/05/02 12:25:48;;;;;;;4.13;2.78;;;23.10;83.30;;;;;;4915727;29;20033;-79
2023/05/02 12:28:16;;;;;;;8.38;4.70;;;23.00;86.40;;;;;;4914741;29;20028;-79
2023/05/02 12:30:43;;;;;;;7.20;3.58;;;23.10;86.90;;;;;;4913654;29;20036;-79
2023/05/02 12:33:10;;;;;;;5.80;3.30;;;23.20;86.30;;;;;;4915754;29;20391;-78
2023/05/02 12:35:35;;;;;;;4.43;3.05;;;23.10;84.80;;;;;;4915694;29;20048;-79
2023/05/02 12:38:11;;;;;;;6.38;4.18;;;23.40;84.50;;;;;;4915641;29;20063;-77
2023/05/02 12:40:38;;;;;;;9.35;4.35;;;23.60;86.70;;;;;;4914806;29;20032;-79
2023/05/02 12:43:09;;;;;;;8.68;3.80;;;23.60;85.40;;;;;;4915393;29;20040;-78
2023/05/02 12:45:35;;;;;;;5.70;3.65;;;23.50;88.30;;;;;;4916232;29;20047;-79
2023/05/02 12:48:17;;;;;;;3.88;2.88;;;23.60;86.60;;;;;;4918947;29;20059;-78
2023/05/02 12:50:43;;;;;;;5.03;3.63;;;23.70;85.60;;;;;;4918405;29;20028;-79
2023/05/02 12:53:09;;;;;;;8.45;3.65;;;23.70;84.20;;;;;;4919016;29;20543;-78
2023/05/02 12:55:35;;;;;;;10.30;4.68;;;23.50;81.20;;;;;;4918694;29;20032;-78
2023/05/02 12:58:13;;;;;;;10.73;6.50;;;23.30;84.20;;;;;;4918892;29;20107;-78
2023/05/02 13:00:41;;;;;;;5.72;3.42;;;23.40;84.20;;;;;;4918416;29;20028;-78